Time;durP1;ratioP1;P1;durP2;ratioP2;P2;SDS_P1;SDS_P2;PMS_P1;PMS_P2;Temp;Humidity;BMP_temperature;BMP_pressure;BME280_temperature;BME280_humidity;BME280_pressure;Samples;Min_cycle;Max_cycle;Signal;HPM_P1;HPM_P2
2022/03/07 00:00:29;;;;;;;17.05;11.10;;;;;;;-2.62;87.23;102743.44;5052287;28;20029;-75
2022/03/07 00:02:54;;;;;;;18.15;10.95;;;;;;;-2.64;87.35;102742.44;5052173;28;20033;-75
2022/03/07 00:05:20;;;;;;;20.33;11.10;;;;;;;-2.64;87.73;102750.09;5051416;28;20044;-75
2022/03/07 00:07:45;;;;;;;18.63;11.07;;;;;;;-2.68;87.65;102737.94;5052059;28;20056;-75
2022/03/07 00:10:10;;;;;;;15.85;10.90;;;;;;;-2.66;87.92;102746.56;5051846;28;20041;-75
2022/03/07 00:12:36;;;;;;;16.27;10.90;;;;;;;-2.77;87.82;102729.72;5051725;28;20518;-75
2022/03/07 00:15:02;;;;;;;18.23;10.90;;;;;;;-2.75;88.46;102740.00;5052203;28;20488;-75
2022/03/07 00:17:28;;;;;;;19.02;11.68;;;;;;;-2.74;87.97;102740.13;5051933;28;20032;-75
2022/03/07 00:19:53;;;;;;;18.77;11.75;;;;;;;-2.73;88.56;102746.97;5051136;28;20028;-75
2022/03/07 00:22:18;;;;;;;18.52;11.18;;;;;;;-2.75;88.66;102740.88;5051884;28;20028;-75
2022/03/07 00:24:44;;;;;;;17.90;11.68;;;;;;;-2.80;88.20;102732.09;5051703;28;20029;-75
2022/03/07 00:27:09;;;;;;;17.10;11.00;;;;;;;-2.77;89.00;102732.28;5051361;28;20021;-75
2022/03/07 00:29:34;;;;;;;16.10;11.55;;;;;;;-2.82;88.17;102739.63;5052116;28;20110;-75
2022/03/07 00:31:59;;;;;;;19.38;13.07;;;;;;;-2.81;88.63;102738.00;5051804;28;20155;-75
2022/03/07 00:34:25;;;;;;;16.50;10.80;;;;;;;-2.80;88.34;102744.84;5050945;28;20113;-75
2022/03/07 00:36:50;;;;;;;19.23;10.85;;;;;;;-2.83;88.65;102748.09;5051592;28;20033;-75
2022/03/07 00:39:15;;;;;;;16.27;11.35;;;;;;;-2.86;88.38;102747.88;5051478;28;20029;-75
2022/03/07 00:41:41;;;;;;;20.48;11.48;;;;;;;-2.90;88.89;102747.63;5050730;28;20037;-74
2022/03/07 00:44:07;;;;;;;16.67;11.07;;;;;;;-2.90;88.74;102751.06;5051832;28;20056;-74
2022/03/07 00:46:32;;;;;;;22.23;11.50;;;;;;;-2.95;89.42;102743.88;5051221;28;20480;-75
2022/03/07 00:48:57;;;;;;;21.48;12.00;;;;;;;-2.93;89.02;102753.41;5050925;28;20041;-75
2022/03/07 00:51:26;;;;;;;20.65;11.40;;;;;;;-2.96;89.46;102752.34;5051894;28;20041;-74
2022/03/07 00:53:51;;;;;;;18.20;10.85;;;;;;;-3.00;89.26;102746.16;5050796;28;20488;-75
2022/03/07 00:56:16;;;;;;;20.30;11.68;;;;;;;-3.03;89.66;102747.66;5051017;28;20038;-75
2022/03/07 00:58:42;;;;;;;17.05;11.10;;;;;;;-3.08;89.62;102738.00;5051507;28;20083;-75
2022/03/07 01:01:07;;;;;;;17.05;10.75;;;;;;;-3.03;89.63;102751.09;5051330;28;20025;-75
2022/03/07 01:03:32;;;;;;;17.40;10.52;;;;;;;-3.06;89.45;102749.22;5051391;28;20393;-74
2022/03/07 01:05:58;;;;;;;21.58;11.60;;;;;;;-3.07;89.67;102760.22;5051328;28;20477;-75
2022/03/07 01:08:23;;;;;;;17.70;11.40;;;;;;;-3.11;89.70;102763.38;5050550;28;20033;-75
2022/03/07 01:10:49;;;;;;;17.83;11.77;;;;;;;-3.11;90.40;102752.25;5051198;28;20021;-75
2022/03/07 01:13:14;;;;;;;17.02;11.38;;;;;;;-3.13;89.98;102764.06;5051430;28;20033;-74
2022/03/07 01:15:39;;;;;;;19.65;11.88;;;;;;;-3.14;90.28;102763.19;5050434;28;20061;-75
2022/03/07 01:18:05;;;;;;;16.98;11.25;;;;;;;-3.17;90.06;102762.97;5051303;28;20029;-75
2022/03/07 01:20:31;;;;;;;18.63;11.77;;;;;;;-3.18;89.40;102762.88;5051264;28;20035;-75
2022/03/07 01:22:57;;;;;;;17.25;10.82;;;;;;;-3.26;89.98;102751.31;5050332;28;20625;-74
2022/03/07 01:25:22;;;;;;;17.88;11.38;;;;;;;-3.30;89.82;102763.00;5051221;28;20025;-74
2022/03/07 01:27:47;;;;;;;18.35;11.52;;;;;;;-3.31;90.34;102761.19;5050899;28;20033;-75
2022/03/07 01:30:13;;;;;;;22.45;12.98;;;;;;;-3.31;90.81;102758.66;5032844;28;20034;-75
2022/03/07 01:32:38;;;;;;;19.88;12.05;;;;;;;-3.33;90.29;102760.25;5030953;28;20026;-74
2022/03/07 01:35:05;;;;;;;18.70;11.15;;;;;;;-3.40;90.93;102750.41;5031581;28;20022;-74
2022/03/07 01:37:31;;;;;;;21.42;11.95;;;;;;;-3.43;90.63;102746.03;5030286;28;20147;-74
2022/03/07 01:39:56;;;;;;;18.60;11.55;;;;;;;-3.44;90.82;102751.00;5030997;28;20033;-74
2022/03/07 01:42:21;;;;;;;17.92;11.60;;;;;;;-3.49;90.79;102747.31;5031262;28;20021;-74
2022/03/07 01:44:47;;;;;;;19.25;11.65;;;;;;;-3.53;91.16;102752.19;5030438;28;20025;-74
2022/03/07 01:47:12;;;;;;;21.08;11.82;;;;;;;-3.55;90.99;102741.00;5031527;28;20053;-75
2022/03/07 01:49:37;;;;;;;21.20;12.20;;;;;;;-3.56;91.06;102748.56;5030879;28;20046;-74
2022/03/07 01:52:03;;;;;;;20.88;11.77;;;;;;;-3.57;91.99;102750.22;5030512;28;20021;-75
2022/03/07 01:54:28;;;;;;;20.05;12.07;;;;;;;-3.58;91.94;102738.25;5030901;28;20022;-74
2022/03/07 01:56:54;;;;;;;21.77;12.20;;;;;;;-3.58;91.73;102748.47;5032017;28;20071;-74
2022/03/07 01:59:24;;;;;;;21.75;12.52;;;;;;;-3.60;92.06;102739.84;5034438;28;20025;-74
2022/03/07 02:01:50;;;;;;;20.52;11.90;;;;;;;-3.70;92.30;102728.94;5034547;28;20022;-74
2022/03/07 02:04:15;;;;;;;20.33;11.65;;;;;;;-3.65;92.44;102740.31;5033904;28;20048;-74
2022/03/07 02:06:41;;;;;;;20.25;12.45;;;;;;;-3.66;92.31;102733.44;5034127;28;20034;-74
2022/03/07 02:09:08;;;;;;;21.27;12.30;;;;;;;-3.69;92.70;102739.25;5034528;28;20026;-74
2022/03/07 02:11:34;;;;;;;18.63;12.32;;;;;;;-3.70;92.26;102732.34;5033768;28;20061;-74
2022/03/07 02:14:30;;;;;;;18.90;11.32;;;;;;;-3.69;92.28;102730.72;5034352;28;20029;-74
2022/03/07 02:16:55;;;;;;;19.95;12.20;;;;;;;-3.71;92.47;102732.28;5037728;28;20052;-74
2022/03/07 02:19:21;;;;;;;22.15;11.98;;;;;;;-3.73;93.10;102733.84;5033367;28;20029;-74
2022/03/07 02:21:49;;;;;;;21.77;12.13;;;;;;;-3.74;93.00;102732.94;5034330;28;20112;-75
2022/03/07 02:24:18;;;;;;;19.10;12.55;;;;;;;-3.75;93.35;102731.19;5034005;28;20385;-74
2022/03/07 02:26:55;;;;;;;21.83;11.57;;;;;;;-3.77;92.89;102730.19;5033272;28;20026;-74
2022/03/07 02:29:20;;;;;;;20.90;12.10;;;;;;;-3.78;93.57;102725.91;5034145;28;20079;-74
2022/03/07 02:31:45;;;;;;;21.00;12.02;;;;;;;-3.81;93.46;102716.38;5033815;28;20034;-75
2022/03/07 02:34:11;;;;;;;19.88;11.57;;;;;;;-3.81;93.80;102712.97;5033126;28;20041;-74
2022/03/07 02:36:36;;;;;;;21.00;11.27;;;;;;;-3.78;93.87;102720.81;5034159;28;20121;-74
2022/03/07 02:39:01;;;;;;;20.90;12.55;;;;;;;-3.84;93.54;102712.75;5034063;28;20026;-74
2022/03/07 02:41:27;;;;;;;20.55;12.55;;;;;;;-3.82;94.09;102721.41;5033251;28;20473;-74
2022/03/07 02:43:52;;;;;;;22.20;12.70;;;;;;;-3.83;94.14;102720.47;5033640;28;20021;-74
2022/03/07 02:46:17;;;;;;;20.52;12.93;;;;;;;-3.85;93.82;102719.53;5033015;28;20448;-74
2022/03/07 02:48:42;;;;;;;20.27;11.70;;;;;;;-3.85;93.91;102716.09;5033255;28;20049;-74
2022/03/07 02:51:09;;;;;;;22.67;12.93;;;;;;;-3.83;94.63;102732.34;5033795;28;20535;-74
2022/03/07 02:53:35;;;;;;;23.75;13.15;;;;;;;-3.84;94.21;102731.47;5033180;28;20120;-74
2022/03/07 02:56:00;;;;;;;18.63;12.45;;;;;;;-3.87;95.00;102710.88;5033491;28;20064;-74
2022/03/07 02:58:26;;;;;;;22.75;12.80;;;;;;;-3.85;95.18;102723.75;5033538;28;20073;-74
2022/03/07 03:00:51;;;;;;;19.80;12.32;;;;;;;-3.85;95.11;102722.06;5032637;28;20580;-74
2022/03/07 03:03:16;;;;;;;21.90;12.60;;;;;;;-3.86;95.07;102722.88;5033313;28;20060;-74
2022/03/07 03:05:42;;;;;;;21.65;12.45;;;;;;;-3.88;95.05;102731.19;5033460;28;20026;-74
2022/03/07 03:08:07;;;;;;;23.98;13.38;;;;;;;-3.89;95.15;102711.56;5032949;28;20021;-74
2022/03/07 03:10:32;;;;;;;20.20;12.70;;;;;;;-3.90;95.22;102722.53;5033274;28;20044;-75
2022/03/07 03:12:58;;;;;;;26.55;13.57;;;;;;;-3.92;95.76;102721.59;5033089;28;20470;-75
2022/03/07 03:15:23;;;;;;;23.95;13.52;;;;;;;-3.95;95.75;102718.84;5032329;28;20029;-74
2022/03/07 03:17:48;;;;;;;23.00;12.82;;;;;;;-3.96;95.77;102714.50;5032846;28;20438;-74
2022/03/07 03:20:15;;;;;;;28.58;14.32;;;;;;;-3.97;96.16;102716.16;5033208;28;20029;-74
2022/03/07 03:22:42;;;;;;;22.77;13.18;;;;;;;-3.97;96.17;102721.25;5032460;28;20029;-74
2022/03/07 03:25:09;;;;;;;27.38;13.82;;;;;;;-4.01;95.93;102719.31;5033385;28;20083;-74
2022/03/07 03:27:36;;;;;;;24.65;13.75;;;;;;;-4.04;95.97;102725.06;5033224;28;20037;-74
2022/03/07 03:30:03;;;;;;;27.17;13.82;;;;;;;-4.08;96.81;102720.56;5032164;28;20389;-74
2022/03/07 03:32:30;;;;;;;26.17;13.27;;;;;;;-4.10;96.67;102726.34;5032664;28;20105;-74
2022/03/07 03:34:55;;;;;;;25.15;14.30;;;;;;;-4.10;95.98;102719.56;5032820;28;20040;-74
2022/03/07 03:37:21;;;;;;;25.65;13.77;;;;;;;-4.13;96.20;102721.03;5031951;28;20457;-74
2022/03/07 03:39:47;;;;;;;26.35;13.32;;;;;;;-4.11;96.25;102722.91;5032710;28;20029;-74
2022/03/07 03:42:12;;;;;;;22.60;13.18;;;;;;;-4.13;96.06;102728.69;5032488;28;20030;-74
2022/03/07 03:44:37;;;;;;;23.30;13.57;;;;;;;-4.15;96.68;102728.59;5031784;28;20039;-74
2022/03/07 03:47:03;;;;;;;24.10;13.40;;;;;;;-4.17;96.70;102730.13;5032675;28;20098;-74
2022/03/07 03:49:30;;;;;;;23.27;13.57;;;;;;;-4.27;96.10;102720.13;5031793;28;20040;-74
2022/03/07 03:51:55;;;;;;;24.25;13.50;;;;;;;-4.20;97.03;102737.56;5032343;28;20040;-74
2022/03/07 03:54:20;;;;;;;22.95;13.93;;;;;;;-4.21;96.75;102740.03;5032476;28;20021;-74
2022/03/07 03:56:46;;;;;;;27.65;14.00;;;;;;;-4.24;96.78;102735.59;5031599;28;20431;-74
2022/03/07 03:59:11;;;;;;;23.77;14.50;;;;;;;-4.27;96.72;102732.84;5032252;28;20079;-74
2022/03/07 04:01:36;;;;;;;25.85;14.05;;;;;;;-4.28;97.42;102738.75;5032295;28;20421;-74
2022/03/07 04:04:02;;;;;;;25.25;13.80;;;;;;;-4.30;97.52;102737.75;5031850;28;20034;-74
2022/03/07 04:06:27;;;;;;;24.30;13.55;;;;;;;-4.32;97.58;102737.63;5032237;28;20029;-74
2022/03/07 04:09:01;;;;;;;25.85;14.32;;;;;;;-4.32;97.85;102736.75;5032168;28;20025;-74
2022/03/07 04:11:27;;;;;;;24.85;14.45;;;;;;;-4.36;97.80;102734.78;5031309;28;20497;-74
2022/03/07 04:13:52;;;;;;;24.25;14.18;;;;;;;-4.37;97.52;102738.13;5031928;28;20033;-74
2022/03/07 04:16:17;;;;;;;23.17;14.68;;;;;;;-4.37;98.40;102733.91;5032197;28;20358;-74
2022/03/07 04:18:43;;;;;;;28.20;15.10;;;;;;;-4.35;97.91;102741.63;5031012;28;20427;-74
2022/03/07 04:21:08;;;;;;;24.90;14.20;;;;;;;-4.36;97.62;102737.31;5032067;28;20067;-74
2022/03/07 04:23:33;;;;;;;25.13;14.40;;;;;;;-4.35;98.41;102732.34;5032067;28;20424;-74
2022/03/07 04:25:59;;;;;;;27.02;14.00;;;;;;;-4.38;98.44;102721.03;5031179;28;20477;-74
2022/03/07 04:28:24;;;;;;;24.85;14.10;;;;;;;-4.37;98.77;102733.03;5031735;28;20064;-74
2022/03/07 04:30:49;;;;;;;28.52;14.68;;;;;;;-4.36;98.46;102734.78;5031776;28;20029;-74
2022/03/07 04:33:15;;;;;;;27.17;15.00;;;;;;;-4.37;98.31;102731.34;5031235;28;20032;-74
2022/03/07 04:35:40;;;;;;;25.05;14.10;;;;;;;-4.40;98.58;102725.19;5031891;28;20066;-74
2022/03/07 04:38:06;;;;;;;29.52;15.20;;;;;;;-4.37;98.35;102733.91;5031786;28;20041;-74
2022/03/07 04:40:31;;;;;;;25.02;14.07;;;;;;;-4.39;98.46;102725.25;5031085;28;20064;-74
2022/03/07 04:42:56;;;;;;;27.95;14.85;;;;;;;-4.39;99.15;102730.34;5031709;28;20099;-74
2022/03/07 04:45:23;;;;;;;24.95;13.82;;;;;;;-4.37;98.77;102733.91;5031800;28;20045;-74
2022/03/07 04:47:48;;;;;;;24.75;14.55;;;;;;;-4.43;98.29;102730.06;5030585;28;20025;-74
2022/03/07 04:50:14;;;;;;;26.88;14.35;;;;;;;-4.47;98.78;102729.84;5031716;28;20033;-74
2022/03/07 04:52:41;;;;;;;26.90;15.18;;;;;;;-4.46;98.63;102733.28;5031598;28;20025;-74
2022/03/07 04:55:08;;;;;;;26.90;14.65;;;;;;;-4.47;98.91;102726.44;5031403;28;20485;-74
2022/03/07 04:57:33;;;;;;;28.92;14.43;;;;;;;-4.45;99.26;102735.03;5031240;28;20116;-74
2022/03/07 04:59:58;;;;;;;25.20;14.60;;;;;;;-4.47;98.94;102739.16;5030892;28;20101;-74
2022/03/07 05:02:24;;;;;;;26.83;14.35;;;;;;;-4.50;98.70;102732.19;5031423;28;20053;-74
2022/03/07 05:04:49;;;;;;;23.42;13.95;;;;;;;-4.51;99.14;102730.44;5031405;28;20080;-74
2022/03/07 05:07:14;;;;;;;27.08;14.77;;;;;;;-4.53;98.51;102728.56;5030833;28;20465;-74
2022/03/07 05:09:40;;;;;;;24.73;14.20;;;;;;;-4.52;98.97;102733.72;5031452;28;20420;-74
2022/03/07 05:12:05;;;;;;;24.30;13.63;;;;;;;-4.55;98.77;102730.97;5031710;28;20021;-74
2022/03/07 05:14:31;;;;;;;26.85;15.15;;;;;;;-4.60;98.71;102729.78;5030861;28;20109;-74
2022/03/07 05:16:56;;;;;;;25.45;14.43;;;;;;;-4.64;98.91;102727.81;5031433;28;20069;-74
2022/03/07 05:19:23;;;;;;;24.85;14.07;;;;;;;-4.66;99.19;102720.84;5031373;28;20025;-74
2022/03/07 05:21:48;;;;;;;27.08;15.07;;;;;;;-4.71;99.26;102733.25;5030645;28;20024;-74
2022/03/07 05:24:14;;;;;;;33.10;15.25;;;;;;;-4.71;100.00;102731.63;5031136;28;20026;-74
2022/03/07 05:26:39;;;;;;;30.52;15.70;;;;;;;-4.76;99.26;102734.63;5031121;28;20117;-74
2022/03/07 05:29:06;;;;;;;27.17;14.77;;;;;;;-4.77;99.22;102725.22;5030694;28;20056;-74
2022/03/07 05:31:31;;;;;;;29.33;15.32;;;;;;;-4.79;99.40;102727.66;5032190;28;20026;-74
2022/03/07 05:33:57;;;;;;;27.25;14.35;;;;;;;-4.86;99.69;102720.38;5034916;28;20483;-74
2022/03/07 05:36:22;;;;;;;28.88;15.63;;;;;;;-4.85;99.40;102726.34;5034160;28;20504;-74
2022/03/07 05:38:47;;;;;;;27.85;15.38;;;;;;;-4.83;99.95;102734.97;5034952;28;20362;-74
2022/03/07 05:41:13;;;;;;;26.45;15.07;;;;;;;-4.83;100.00;102729.88;5034843;28;20029;-74
2022/03/07 05:43:38;;;;;;;28.27;15.13;;;;;;;-4.83;99.92;102740.94;5034068;28;20100;-74
2022/03/07 05:46:03;;;;;;;28.15;15.95;;;;;;;-4.83;100.00;102734.97;5034974;28;20029;-74
2022/03/07 05:48:29;;;;;;;26.25;15.20;;;;;;;-4.89;100.00;102732.00;5034462;28;20140;-74
2022/03/07 05:50:54;;;;;;;28.17;15.25;;;;;;;-4.88;99.56;102747.34;5034015;28;20021;-74
2022/03/07 05:53:21;;;;;;;29.10;16.75;;;;;;;-4.90;99.83;102742.97;5034760;28;20025;-74
2022/03/07 05:55:50;;;;;;;33.45;16.58;;;;;;;-4.93;100.00;102736.00;5034665;28;20418;-74
2022/03/07 05:58:16;;;;;;;32.75;16.42;;;;;;;-4.88;100.00;102744.81;5033600;28;20029;-74
2022/03/07 06:00:44;;;;;;;29.75;15.68;;;;;;;-4.96;100.00;102729.03;5034707;28;20080;-74
2022/03/07 06:03:10;;;;;;;29.25;16.70;;;;;;;-4.96;100.00;102736.66;5034070;28;20060;-75
2022/03/07 06:05:35;;;;;;;32.05;16.45;;;;;;;-4.91;100.00;102742.06;5034872;28;20446;-74
2022/03/07 06:08:01;;;;;;;37.33;16.55;;;;;;;-4.89;100.00;102750.69;5034382;28;20056;-74
2022/03/07 06:10:26;;;;;;;31.10;15.68;;;;;;;-4.91;100.00;102744.59;5033401;28;20024;-74
2022/03/07 06:12:51;;;;;;;33.35;16.30;;;;;;;-4.90;100.00;102759.09;5034539;28;20056;-74
2022/03/07 06:15:17;;;;;;;34.03;17.08;;;;;;;-4.96;100.00;102744.28;5034370;28;20211;-74
2022/03/07 06:17:51;;;;;;;28.95;15.90;;;;;;;-4.87;100.00;102763.50;5033537;28;20075;-74
2022/03/07 06:20:16;;;;;;;29.27;16.25;;;;;;;-4.87;100.00;102758.41;5034089;28;20428;-74
2022/03/07 06:22:41;;;;;;;33.67;17.38;;;;;;;-4.81;100.00;102761.38;5034077;28;20014;-74
2022/03/07 06:25:07;;;;;;;38.35;17.90;;;;;;;-4.80;100.00;102766.59;5033600;28;20092;-74
2022/03/07 06:27:32;;;;;;;31.40;16.50;;;;;;;-4.76;100.00;102762.59;5034216;28;20036;-74
2022/03/07 06:29:57;;;;;;;36.85;17.25;;;;;;;-4.74;100.00;102772.13;5033926;28;20091;-74
2022/03/07 06:32:24;;;;;;;34.13;17.10;;;;;;;-4.69;100.00;102774.09;5033415;28;20024;-74
2022/03/07 06:34:50;;;;;;;31.95;16.55;;;;;;;-4.64;100.00;102770.19;5033954;28;20033;-74
2022/03/07 06:37:15;;;;;;;33.22;17.02;;;;;;;-4.60;100.00;102778.16;5033861;28;20105;-74
2022/03/07 06:39:41;;;;;;;32.05;17.75;;;;;;;-4.52;100.00;102782.09;5033046;28;20535;-74
2022/03/07 06:42:06;;;;;;;31.35;17.65;;;;;;;-4.47;100.00;102779.88;5033802;28;20037;-74
2022/03/07 06:44:32;;;;;;;33.72;18.27;;;;;;;-4.47;100.00;102775.69;5033817;28;20466;-74
2022/03/07 06:46:59;;;;;;;33.97;17.42;;;;;;;-4.39;100.00;102785.50;5032977;28;20076;-74
2022/03/07 06:49:24;;;;;;;36.47;18.65;;;;;;;-4.45;100.00;102767.25;5033469;28;20037;-74
2022/03/07 06:51:52;;;;;;;40.80;18.05;;;;;;;-4.34;100.00;102779.06;5033581;28;20040;-74
2022/03/07 06:54:17;;;;;;;28.67;15.90;;;;;;;-4.31;100.00;102780.16;5032609;28;20026;-74
2022/03/07 06:56:42;;;;;;;31.13;17.10;;;;;;;-4.27;100.00;102789.75;5033646;28;20025;-74
2022/03/07 06:59:08;;;;;;;31.73;17.13;;;;;;;-4.25;100.00;102783.13;5033825;28;20493;-74
2022/03/07 07:01:33;;;;;;;32.88;17.40;;;;;;;-4.16;100.00;102795.56;5032540;28;20025;-74
2022/03/07 07:03:58;;;;;;;33.42;18.60;;;;;;;-4.10;100.00;102785.81;5033433;28;20034;-74
2022/03/07 07:06:23;;;;;;;34.03;16.95;;;;;;;-4.03;100.00;102790.53;5032555;28;20497;-74
2022/03/07 07:08:49;;;;;;;32.85;17.27;;;;;;;-3.94;100.00;102789.38;5033177;28;20040;-74
2022/03/07 07:11:14;;;;;;;38.47;16.85;;;;;;;-3.88;100.00;102787.25;5033150;28;20104;-74
2022/03/07 07:13:40;;;;;;;35.90;18.88;;;;;;;-3.83;100.00;102781.66;5032538;28;20044;-74
2022/03/07 07:16:05;;;;;;;32.83;17.35;;;;;;;-3.73;99.82;102787.34;5033355;28;20535;-74
2022/03/07 07:18:30;;;;;;;31.90;18.15;;;;;;;-3.69;99.77;102784.25;5032892;28;20051;-74
2022/03/07 07:20:56;;;;;;;35.80;18.25;;;;;;;-3.65;100.00;102784.53;5032311;28;20026;-74
2022/03/07 07:23:22;;;;;;;31.48;17.02;;;;;;;-3.58;99.46;102785.81;5032897;28;20469;-74
2022/03/07 07:25:48;;;;;;;29.25;16.45;;;;;;;-3.55;99.69;102786.91;5033101;28;20120;-74
2022/03/07 07:28:14;;;;;;;30.13;16.90;;;;;;;-3.47;99.18;102776.31;5032294;28;20021;-74
2022/03/07 07:30:39;;;;;;;29.63;17.33;;;;;;;-3.43;99.18;102775.75;5032876;28;20032;-74
2022/03/07 07:33:05;;;;;;;33.00;18.13;;;;;;;-3.35;98.97;102783.09;5033154;28;20025;-74
2022/03/07 07:35:30;;;;;;;31.67;17.63;;;;;;;-3.29;98.97;102777.50;5031916;28;20025;-75
2022/03/07 07:37:55;;;;;;;29.02;16.45;;;;;;;-3.21;98.15;102780.53;5032469;28;20121;-74
2022/03/07 07:40:21;;;;;;;31.92;17.58;;;;;;;-3.13;98.28;102772.59;5032524;28;20021;-75
2022/03/07 07:42:47;;;;;;;30.85;15.73;;;;;;;-3.06;98.00;102781.50;5032112;28;20389;-75
2022/03/07 07:45:12;;;;;;;30.50;16.98;;;;;;;-2.97;97.72;102773.56;5032489;28;20025;-74
2022/03/07 07:47:38;;;;;;;29.13;16.42;;;;;;;-2.93;97.20;102786.59;5032381;28;20553;-75
2022/03/07 07:50:04;;;;;;;29.23;16.30;;;;;;;-2.85;96.98;102793.03;5031963;28;20026;-75
2022/03/07 07:52:30;;;;;;;29.60;15.82;;;;;;;-2.75;96.63;102791.06;5032308;28;20116;-74
2022/03/07 07:54:55;;;;;;;29.15;16.63;;;;;;;-2.60;95.78;102794.56;5031515;28;20104;-74
2022/03/07 07:57:20;;;;;;;27.13;16.58;;;;;;;-2.48;95.07;102794.47;5031719;28;20034;-75
2022/03/07 07:59:46;;;;;;;28.00;15.50;;;;;;;-2.39;94.26;102792.44;5032228;28;20025;-74
2022/03/07 08:02:14;;;;;;;26.90;16.05;;;;;;;-2.28;93.00;102793.97;5032340;28;20084;-75
2022/03/07 08:04:39;;;;;;;26.73;16.10;;;;;;;-2.18;92.98;102800.53;5031567;28;20064;-75
2022/03/07 08:07:05;;;;;;;25.73;15.23;;;;;;;-2.10;92.13;102780.53;5032377;28;20053;-75
2022/03/07 08:09:30;;;;;;;27.92;14.70;;;;;;;-1.99;90.83;102787.16;5032346;28;20060;-75
2022/03/07 08:11:55;;;;;;;25.30;15.27;;;;;;;-1.89;90.20;102795.47;5031553;28;20048;-75
2022/03/07 08:14:20;;;;;;;24.92;14.50;;;;;;;-1.81;88.93;102787.34;5032083;28;20030;-75
2022/03/07 08:16:46;;;;;;;24.23;14.52;;;;;;;-1.71;88.40;102793.06;5031295;28;20055;-75
2022/03/07 08:19:11;;;;;;;22.58;13.48;;;;;;;-1.62;88.35;102799.53;5032024;28;20038;-75
2022/03/07 08:21:36;;;;;;;22.70;13.88;;;;;;;-1.55;87.66;102788.84;5031968;28;20025;-75
2022/03/07 08:24:02;;;;;;;23.92;14.25;;;;;;;-1.48;87.42;102785.84;5031353;28;20807;-75
2022/03/07 08:26:28;;;;;;;22.23;13.90;;;;;;;-1.37;86.93;102784.78;5032031;28;20025;-74
2022/03/07 08:28:53;;;;;;;22.40;13.23;;;;;;;-1.27;85.19;102784.50;5031948;28;20017;-75
2022/03/07 08:31:18;;;;;;;20.35;13.45;;;;;;;-1.19;84.95;102782.34;5031195;28;20067;-75
2022/03/07 08:33:43;;;;;;;22.10;13.73;;;;;;;-1.06;84.71;102789.03;5031842;28;20495;-75
2022/03/07 08:36:09;;;;;;;22.13;14.13;;;;;;;-1.00;84.35;102789.38;5031973;28;20520;-75
2022/03/07 08:38:34;;;;;;;22.10;13.32;;;;;;;-0.86;82.77;102790.13;5030979;28;20103;-75
2022/03/07 08:41:00;;;;;;;23.90;12.75;;;;;;;-0.75;82.44;102787.34;5031585;28;20053;-75
2022/03/07 08:43:25;;;;;;;21.63;12.73;;;;;;;-0.67;82.18;102790.31;5031774;28;20057;-75
2022/03/07 08:45:51;;;;;;;18.92;11.95;;;;;;;-0.56;79.92;102788.31;5030955;28;20473;-75
2022/03/07 08:48:16;;;;;;;18.00;12.13;;;;;;;-0.41;80.28;102793.38;5031455;28;20519;-75
2022/03/07 08:50:42;;;;;;;16.42;10.48;;;;;;;-0.29;78.65;102786.34;5031587;28;20477;-75
2022/03/07 08:53:07;;;;;;;19.55;11.27;;;;;;;-0.18;78.18;102792.03;5031137;28;20493;-75
2022/03/07 08:55:32;;;;;;;17.20;11.32;;;;;;;-0.09;77.59;102780.56;5031710;28;20017;-75
2022/03/07 08:57:58;;;;;;;18.10;10.90;;;;;;;0.01;77.92;102775.91;5031300;28;20029;-75
2022/03/07 09:00:23;;;;;;;15.18;10.48;;;;;;;0.11;76.24;102773.88;5030823;28;20029;-75
2022/03/07 09:02:48;;;;;;;15.27;9.35;;;;;;;0.15;75.44;102756.94;5031481;28;20026;-76
2022/03/07 09:05:14;;;;;;;14.38;9.30;;;;;;;0.29;74.44;102773.00;5032171;28;20382;-76
2022/03/07 09:07:39;;;;;;;15.70;8.88;;;;;;;0.38;73.29;102766.66;5034652;28;20117;-75
2022/03/07 09:10:05;;;;;;;13.93;8.48;;;;;;;0.49;72.57;102763.72;5035973;28;20032;-75
2022/03/07 09:12:30;;;;;;;12.82;8.68;;;;;;;0.59;70.91;102769.41;5035429;28;20432;-76
2022/03/07 09:15:01;;;;;;;15.13;9.20;;;;;;;0.69;69.71;102763.03;5034668;28;20021;-75
2022/03/07 09:17:27;;;;;;;13.18;8.90;;;;;;;0.79;70.60;102765.22;5035242;28;20466;-75
2022/03/07 09:19:55;;;;;;;16.05;9.07;;;;;;;0.91;69.31;102764.88;5035217;28;20032;-75
2022/03/07 09:22:21;;;;;;;13.95;9.38;;;;;;;1.01;68.83;102764.50;5034359;28;20026;-75
2022/03/07 09:24:46;;;;;;;11.13;8.30;;;;;;;1.11;67.15;102758.09;5035550;28;20021;-75
2022/03/07 09:27:11;;;;;;;11.55;8.02;;;;;;;1.15;66.66;102760.91;5034298;28;20030;-75
2022/03/07 09:29:37;;;;;;;11.00;8.32;;;;;;;1.22;67.14;102756.03;5035421;28;20036;-75
2022/03/07 09:32:05;;;;;;;12.27;8.30;;;;;;;1.36;66.54;102757.53;5035311;28;20056;-75
2022/03/07 09:34:31;;;;;;;12.63;8.00;;;;;;;1.43;66.63;102754.41;5034229;28;20041;-75
2022/03/07 09:36:56;;;;;;;11.27;7.93;;;;;;;1.48;66.86;102745.25;5034766;28;20033;-73
2022/03/07 09:39:21;;;;;;;12.48;8.07;;;;;;;1.61;65.68;102746.66;5034836;28;20076;-73
2022/03/07 09:41:47;;;;;;;10.82;7.88;;;;;;;1.69;65.77;102749.56;5034271;28;20040;-73
2022/03/07 09:44:12;;;;;;;11.90;7.32;;;;;;;1.74;65.27;102753.22;5034933;28;20025;-73
2022/03/07 09:46:37;;;;;;;10.40;7.30;;;;;;;1.84;63.48;102748.53;5034829;28;20507;-72
2022/03/07 09:49:03;;;;;;;10.27;7.05;;;;;;;1.91;63.29;102746.22;5034190;28;20045;-73
2022/03/07 09:51:28;;;;;;;11.23;7.35;;;;;;;1.98;63.59;102737.94;5034672;28;20524;-73
2022/03/07 09:53:54;;;;;;;14.80;7.20;;;;;;;2.05;62.62;102737.38;5034801;28;20060;-73
2022/03/07 09:56:19;;;;;;;12.75;7.00;;;;;;;2.13;61.90;102738.59;5034073;28;20119;-73
2022/03/07 09:58:45;;;;;;;10.40;6.53;;;;;;;2.20;62.81;102742.28;5034580;28;20032;-73
2022/03/07 10:01:14;;;;;;;8.57;6.90;;;;;;;2.25;62.33;102738.19;5034471;28;20024;-73
2022/03/07 10:03:40;;;;;;;8.60;6.00;;;;;;;2.29;61.05;102729.81;5033860;28;20029;-73
2022/03/07 10:06:19;;;;;;;10.20;7.25;;;;;;;2.38;61.90;102726.72;5034680;28;20072;-73
2022/03/07 10:08:54;;;;;;;10.25;6.45;;;;;;;2.47;61.44;102727.97;5034639;28;20075;-73
2022/03/07 10:11:20;;;;;;;9.38;6.32;;;;;;;2.55;60.51;102718.84;5033669;28;20017;-73
2022/03/07 10:14:04;;;;;;;8.23;6.25;;;;;;;2.58;61.86;102721.56;5034377;28;20063;-73
2022/03/07 10:16:36;;;;;;;;;;;;;;;2.64;63.55;102707.13;5033556;28;20025;-73
2022/03/07 10:19:07;;;;;;;11.43;6.25;;;;;;;2.77;60.49;102707.66;5034243;28;19939;-73
2022/03/07 10:21:32;;;;;;;9.40;6.05;;;;;;;2.83;58.86;102713.88;5034321;28;20022;-73
2022/03/07 10:23:58;;;;;;;7.10;5.53;;;;;;;2.88;60.37;102715.81;5033310;28;20029;-73
2022/03/07 10:26:24;;;;;;;10.93;5.80;;;;;;;2.98;59.49;102710.19;5034143;28;20060;-73
2022/03/07 10:28:54;;;;;;;7.05;5.57;;;;;;;3.10;58.89;102704.59;5033516;28;20053;-73
2022/03/07 10:31:20;;;;;;;9.13;5.90;;;;;;;3.18;58.66;102704.91;5032922;28;20029;-73
2022/03/07 10:33:47;;;;;;;9.30;5.75;;;;;;;3.25;58.15;102704.31;5033997;28;20028;-73
2022/03/07 10:36:12;;;;;;;6.85;5.20;;;;;;;3.29;57.92;102696.72;5033901;28;20473;-73
2022/03/07 10:38:39;;;;;;;7.22;5.50;;;;;;;3.34;55.92;102701.19;5033025;28;20033;-75
2022/03/07 10:41:06;;;;;;;8.93;5.70;;;;;;;3.41;57.92;102700.59;5034054;28;20025;-75
2022/03/07 10:43:31;;;;;;;7.65;5.28;;;;;;;3.55;56.77;102698.47;5033535;28;20021;-75
2022/03/07 10:45:59;;;;;;;8.65;5.32;;;;;;;3.59;55.95;102695.19;5033183;28;20439;-76
2022/03/07 10:48:27;;;;;;;8.52;5.68;;;;;;;3.63;56.03;102684.13;5033609;28;20047;-76
2022/03/07 10:50:57;;;;;;;8.35;5.43;;;;;;;3.73;56.32;102675.91;5033708;28;20025;-75
2022/03/07 10:53:23;;;;;;;8.25;5.90;;;;;;;3.84;56.78;102686.59;5033042;28;20037;-75
2022/03/07 10:55:54;;;;;;;7.68;5.68;;;;;;;3.87;56.01;102671.22;5033476;28;20028;-75
2022/03/07 10:58:20;;;;;;;12.27;5.88;;;;;;;3.87;55.08;102663.47;5033227;28;20041;-76
2022/03/07 11:01:04;;;;;;;8.85;5.88;;;;;;;3.95;55.79;102662.88;5032712;28;20032;-75
2022/03/07 11:03:33;;;;;;;7.70;5.75;;;;;;;3.99;54.24;102666.47;5033526;28;20036;-76
2022/03/07 11:06:00;;;;;;;7.63;5.55;;;;;;;4.05;55.29;102658.03;5032611;28;20025;-75